sensor_id;sensor_type;location;lat;lon;timestamp;temperature;humidity
48728;DHT22;34527;45.618;5.130;2024-02-21T00:00:52;5.60;99.90
48728;DHT22;34527;45.618;5.130;2024-02-21T00:03:17;5.60;99.90
48728;DHT22;34527;45.618;5.130;2024-02-21T00:05:43;5.60;99.90
48728;DHT22;34527;45.618;5.130;2024-02-21T00:08:09;5.50;99.90
48728;DHT22;34527;45.618;5.130;2024-02-21T00:10:34;5.50;99.90
48728;DHT22;34527;45.618;5.130;2024-02-21T00:13:00;5.50;99.90
48728;DHT22;34527;45.618;5.130;2024-02-21T00:15:26;5.50;99.90
48728;DHT22;34527;45.618;5.130;2024-02-21T00:17:52;5.50;99.90
48728;DHT22;34527;45.618;5.130;2024-02-21T00:20:17;5.50;99.90
48728;DHT22;34527;45.618;5.130;2024-02-21T00:22:44;5.50;99.90
48728;DHT22;34527;45.618;5.130;2024-02-21T00:25:10;5.50;99.90
48728;DHT22;34527;45.618;5.130;2024-02-21T00:27:35;5.40;99.90
48728;DHT22;34527;45.618;5.130;2024-02-21T00:30:01;5.50;99.90
48728;DHT22;34527;45.618;5.130;2024-02-21T00:32:27;5.40;99.90
48728;DHT22;34527;45.618;5.130;2024-02-21T00:34:53;5.40;99.90
48728;DHT22;34527;45.618;5.130;2024-02-21T00:37:18;5.50;99.90
48728;DHT22;34527;45.618;5.130;2024-02-21T00:39:44;5.50;99.90
48728;DHT22;34527;45.618;5.130;2024-02-21T00:42:09;5.50;99.90
48728;DHT22;34527;45.618;5.130;2024-02-21T00:44:35;5.50;99.90
48728;DHT22;34527;45.618;5.130;2024-02-21T00:47:00;5.50;99.90
48728;DHT22;34527;45.618;5.130;2024-02-21T00:49:26;5.50;99.90
48728;DHT22;34527;45.618;5.130;2024-02-21T00:51:52;5.60;99.90
48728;DHT22;34527;45.618;5.130;2024-02-21T00:54:17;5.60;99.90
48728;DHT22;34527;45.618;5.130;2024-02-21T00:56:43;5.60;99.90
48728;DHT22;34527;45.618;5.130;2024-02-21T00:59:08;5.50;99.90
48728;DHT22;34527;45.618;5.130;2024-02-21T01:01:34;5.50;99.90
48728;DHT22;34527;45.618;5.130;2024-02-21T01:04:00;5.50;99.90
48728;DHT22;34527;45.618;5.130;2024-02-21T01:06:25;5.40;99.90
48728;DHT22;34527;45.618;5.130;2024-02-21T01:08:51;5.40;99.90
48728;DHT22;34527;45.618;5.130;2024-02-21T01:11:17;5.40;99.90
48728;DHT22;34527;45.618;5.130;2024-02-21T01:13:43;5.40;99.90
48728;DHT22;34527;45.618;5.130;2024-02-21T01:16:08;5.30;99.90
48728;DHT22;34527;45.618;5.130;2024-02-21T01:18:34;5.30;99.90
48728;DHT22;34527;45.618;5.130;2024-02-21T01:21:00;5.40;99.90
48728;DHT22;34527;45.618;5.130;2024-02-21T01:23:26;5.40;99.90
48728;DHT22;34527;45.618;5.130;2024-02-21T01:25:51;5.50;99.90
48728;DHT22;34527;45.618;5.130;2024-02-21T01:28:18;5.50;99.90
48728;DHT22;34527;45.618;5.130;2024-02-21T01:30:43;5.50;99.90
48728;DHT22;34527;45.618;5.130;2024-02-21T01:33:09;5.50;99.90
48728;DHT22;34527;45.618;5.130;2024-02-21T01:35:35;5.40;99.90
48728;DHT22;34527;45.618;5.130;2024-02-21T01:38:01;5.30;99.90
48728;DHT22;34527;45.618;5.130;2024-02-21T01:40:27;5.30;99.90
48728;DHT22;34527;45.618;5.130;2024-02-21T01:42:54;5.40;99.90
48728;DHT22;34527;45.618;5.130;2024-02-21T01:45:20;5.30;99.90
48728;DHT22;34527;45.618;5.130;2024-02-21T01:47:46;5.40;99.90
48728;DHT22;34527;45.618;5.130;2024-02-21T01:50:13;5.40;99.90
48728;DHT22;34527;45.618;5.130;2024-02-21T01:52:40;5.30;99.90
48728;DHT22;34527;45.618;5.130;2024-02-21T01:55:07;5.30;99.90
48728;DHT22;34527;45.618;5.130;2024-02-21T01:57:35;5.30;99.90
48728;DHT22;34527;45.618;5.130;2024-02-21T02:00:01;5.30;99.90
48728;DHT22;34527;45.618;5.130;2024-02-21T02:02:27;5.40;99.90
48728;DHT22;34527;45.618;5.130;2024-02-21T02:04:52;5.40;99.90
48728;DHT22;34527;45.618;5.130;2024-02-21T02:07:18;5.40;99.90
48728;DHT22;34527;45.618;5.130;2024-02-21T02:09:44;5.40;99.90
48728;DHT22;34527;45.618;5.130;2024-02-21T02:12:09;5.50;99.90
48728;DHT22;34527;45.618;5.130;2024-02-21T02:14:35;5.50;99.90
48728;DHT22;34527;45.618;5.130;2024-02-21T02:17:01;5.50;99.90
48728;DHT22;34527;45.618;5.130;2024-02-21T02:19:26;5.50;99.90
48728;DHT22;34527;45.618;5.130;2024-02-21T02:21:58;5.60;99.90
48728;DHT22;34527;45.618;5.130;2024-02-21T02:24:25;5.50;99.90
48728;DHT22;34527;45.618;5.130;2024-02-21T02:26:52;5.50;99.90
48728;DHT22;34527;45.618;5.130;2024-02-21T02:29:18;5.50;99.90
48728;DHT22;34527;45.618;5.130;2024-02-21T02:31:44;5.50;99.90
48728;DHT22;34527;45.618;5.130;2024-02-21T02:34:10;5.60;99.90
48728;DHT22;34527;45.618;5.130;2024-02-21T02:36:36;5.60;99.90
48728;DHT22;34527;45.618;5.130;2024-02-21T02:39:01;5.50;99.90
48728;DHT22;34527;45.618;5.130;2024-02-21T02:41:27;5.50;99.90
48728;DHT22;34527;45.618;5.130;2024-02-21T02:43:53;5.60;99.90
48728;DHT22;34527;45.618;5.130;2024-02-21T02:46:18;5.60;99.90
48728;DHT22;34527;45.618;5.130;2024-02-21T02:48:44;5.60;99.90
48728;DHT22;34527;45.618;5.130;2024-02-21T02:51:10;5.50;99.90
48728;DHT22;34527;45.618;5.130;2024-02-21T02:53:36;5.40;99.90
48728;DHT22;34527;45.618;5.130;2024-02-21T02:56:02;5.40;99.90
48728;DHT22;34527;45.618;5.130;2024-02-21T02:58:28;5.40;99.90
48728;DHT22;34527;45.618;5.130;2024-02-21T03:00:54;5.30;99.90
48728;DHT22;34527;45.618;5.130;2024-02-21T03:03:19;5.30;99.90
48728;DHT22;34527;45.618;5.130;2024-02-21T03:05:46;5.40;99.90
48728;DHT22;34527;45.618;5.130;2024-02-21T03:08:11;5.40;99.90
48728;DHT22;34527;45.618;5.130;2024-02-21T03:10:37;5.40;99.90
48728;DHT22;34527;45.618;5.130;2024-02-21T03:13:02;5.30;99.90
48728;DHT22;34527;45.618;5.130;2024-02-21T03:15:29;5.30;99.90
48728;DHT22;34527;45.618;5.130;2024-02-21T03:17:54;5.30;99.90
48728;DHT22;34527;45.618;5.130;2024-02-21T03:20:20;5.30;99.90
48728;DHT22;34527;45.618;5.130;2024-02-21T03:22:45;5.20;99.90
48728;DHT22;34527;45.618;5.130;2024-02-21T03:25:11;5.20;99.90
48728;DHT22;34527;45.618;5.130;2024-02-21T03:27:38;5.10;99.90
48728;DHT22;34527;45.618;5.130;2024-02-21T03:30:04;5.00;99.90
48728;DHT22;34527;45.618;5.130;2024-02-21T03:32:30;5.00;99.90
48728;DHT22;34527;45.618;5.130;2024-02-21T03:34:56;4.90;99.90
48728;DHT22;34527;45.618;5.130;2024-02-21T03:37:21;4.90;99.90
48728;DHT22;34527;45.618;5.130;2024-02-21T03:39:47;4.90;99.90
48728;DHT22;34527;45.618;5.130;2024-02-21T03:42:13;5.00;99.90
48728;DHT22;34527;45.618;5.130;2024-02-21T03:44:38;5.00;99.90
48728;DHT22;34527;45.618;5.130;2024-02-21T03:47:04;5.00;99.90
48728;DHT22;34527;45.618;5.130;2024-02-21T03:49:30;5.10;99.90
48728;DHT22;34527;45.618;5.130;2024-02-21T03:51:56;5.00;99.90
48728;DHT22;34527;45.618;5.130;2024-02-21T03:54:21;5.00;99.90
48728;DHT22;34527;45.618;5.130;2024-02-21T03:56:47;5.00;99.90
48728;DHT22;34527;45.618;5.130;2024-02-21T03:59:14;4.90;99.90
48728;DHT22;34527;45.618;5.130;2024-02-21T04:01:39;4.90;99.90
48728;DHT22;34527;45.618;5.130;2024-02-21T04:04:05;4.90;99.90
48728;DHT22;34527;45.618;5.130;2024-02-21T04:06:31;4.80;99.90
48728;DHT22;34527;45.618;5.130;2024-02-21T04:08:57;4.80;99.90
48728;DHT22;34527;45.618;5.130;2024-02-21T04:11:22;4.90;99.90
48728;DHT22;34527;45.618;5.130;2024-02-21T04:13:48;4.90;99.90
48728;DHT22;34527;45.618;5.130;2024-02-21T04:16:15;4.90;99.90
48728;DHT22;34527;45.618;5.130;2024-02-21T04:18:41;5.00;99.90
48728;DHT22;34527;45.618;5.130;2024-02-21T04:21:08;5.10;99.90
48728;DHT22;34527;45.618;5.130;2024-02-21T04:23:33;5.20;99.90
48728;DHT22;34527;45.618;5.130;2024-02-21T04:25:59;5.20;99.90
48728;DHT22;34527;45.618;5.130;2024-02-21T04:28:24;5.20;99.90
48728;DHT22;34527;45.618;5.130;2024-02-21T04:30:50;5.20;99.90
48728;DHT22;34527;45.618;5.130;2024-02-21T04:33:16;5.20;99.90
48728;DHT22;34527;45.618;5.130;2024-02-21T04:35:41;5.10;99.90
48728;DHT22;34527;45.618;5.130;2024-02-21T04:38:07;5.10;99.90
48728;DHT22;34527;45.618;5.130;2024-02-21T04:40:33;5.10;99.90
48728;DHT22;34527;45.618;5.130;2024-02-21T04:42:58;5.10;99.90
48728;DHT22;34527;45.618;5.130;2024-02-21T04:45:24;5.20;99.90
48728;DHT22;34527;45.618;5.130;2024-02-21T04:47:49;5.10;99.90
48728;DHT22;34527;45.618;5.130;2024-02-21T04:50:15;5.10;99.90
48728;DHT22;34527;45.618;5.130;2024-02-21T04:52:41;5.20;99.90
48728;DHT22;34527;45.618;5.130;2024-02-21T04:55:07;5.10;99.90
48728;DHT22;34527;45.618;5.130;2024-02-21T04:57:32;5.10;99.90
48728;DHT22;34527;45.618;5.130;2024-02-21T04:59:58;5.10;99.90
48728;DHT22;34527;45.618;5.130;2024-02-21T05:02:23;5.20;99.90
48728;DHT22;34527;45.618;5.130;2024-02-21T05:04:50;5.20;99.90
48728;DHT22;34527;45.618;5.130;2024-02-21T05:07:16;5.10;99.90
48728;DHT22;34527;45.618;5.130;2024-02-21T05:09:45;5.10;99.90
48728;DHT22;34527;45.618;5.130;2024-02-21T05:12:10;5.10;99.90
48728;DHT22;34527;45.618;5.130;2024-02-21T05:14:36;5.00;99.90
48728;DHT22;34527;45.618;5.130;2024-02-21T05:17:03;5.00;99.90
48728;DHT22;34527;45.618;5.130;2024-02-21T05:19:28;5.00;99.90
48728;DHT22;34527;45.618;5.130;2024-02-21T05:21:54;5.00;99.90
48728;DHT22;34527;45.618;5.130;2024-02-21T05:24:20;5.00;99.90
48728;DHT22;34527;45.618;5.130;2024-02-21T05:26:45;5.00;99.90
48728;DHT22;34527;45.618;5.130;2024-02-21T05:29:11;5.00;99.90
48728;DHT22;34527;45.618;5.130;2024-02-21T05:31:55;5.00;99.90
48728;DHT22;34527;45.618;5.130;2024-02-21T05:34:24;5.10;99.90
48728;DHT22;34527;45.618;5.130;2024-02-21T05:36:50;5.00;99.90
48728;DHT22;34527;45.618;5.130;2024-02-21T05:39:17;5.00;99.90
48728;DHT22;34527;45.618;5.130;2024-02-21T05:41:43;4.80;99.90
48728;DHT22;34527;45.618;5.130;2024-02-21T05:44:08;4.80;99.90
48728;DHT22;34527;45.618;5.130;2024-02-21T05:46:34;4.90;99.90
48728;DHT22;34527;45.618;5.130;2024-02-21T05:49:00;4.90;99.90
48728;DHT22;34527;45.618;5.130;2024-02-21T05:51:26;4.80;99.90
48728;DHT22;34527;45.618;5.130;2024-02-21T05:53:51;4.70;99.90
48728;DHT22;34527;45.618;5.130;2024-02-21T05:56:17;4.70;99.90
48728;DHT22;34527;45.618;5.130;2024-02-21T05:58:43;4.80;99.90
48728;DHT22;34527;45.618;5.130;2024-02-21T06:01:10;4.80;99.90
48728;DHT22;34527;45.618;5.130;2024-02-21T06:03:36;4.80;99.90
48728;DHT22;34527;45.618;5.130;2024-02-21T06:06:03;4.80;99.90
48728;DHT22;34527;45.618;5.130;2024-02-21T06:08:30;4.80;99.90
48728;DHT22;34527;45.618;5.130;2024-02-21T06:10:56;4.80;99.90
48728;DHT22;34527;45.618;5.130;2024-02-21T06:13:23;4.90;99.90
48728;DHT22;34527;45.618;5.130;2024-02-21T06:15:49;4.80;99.90
48728;DHT22;34527;45.618;5.130;2024-02-21T06:18:18;4.80;99.90
48728;DHT22;34527;45.618;5.130;2024-02-21T06:20:44;4.80;99.90
48728;DHT22;34527;45.618;5.130;2024-02-21T06:23:11;4.80;99.90
48728;DHT22;34527;45.618;5.130;2024-02-21T06:25:37;4.80;99.90
48728;DHT22;34527;45.618;5.130;2024-02-21T06:28:03;4.80;99.90
48728;DHT22;34527;45.618;5.130;2024-02-21T06:30:29;4.80;99.90
48728;DHT22;34527;45.618;5.130;2024-02-21T06:32:54;4.80;99.90
48728;DHT22;34527;45.618;5.130;2024-02-21T06:35:24;4.90;99.90
48728;DHT22;34527;45.618;5.130;2024-02-21T06:37:53;4.90;99.90
48728;DHT22;34527;45.618;5.130;2024-02-21T06:40:21;4.90;99.90
48728;DHT22;34527;45.618;5.130;2024-02-21T06:42:47;5.00;99.90
48728;DHT22;34527;45.618;5.130;2024-02-21T06:45:13;5.00;99.90
48728;DHT22;34527;45.618;5.130;2024-02-21T06:47:38;4.90;99.90
48728;DHT22;34527;45.618;5.130;2024-02-21T06:50:05;5.00;99.90
48728;DHT22;34527;45.618;5.130;2024-02-21T06:52:30;5.00;99.90
48728;DHT22;34527;45.618;5.130;2024-02-21T06:54:56;5.00;99.90
48728;DHT22;34527;45.618;5.130;2024-02-21T06:57:22;5.00;99.90
48728;DHT22;34527;45.618;5.130;2024-02-21T06:59:48;5.00;99.90
48728;DHT22;34527;45.618;5.130;2024-02-21T07:02:13;5.00;99.90
48728;DHT22;34527;45.618;5.130;2024-02-21T07:04:39;5.10;99.90
48728;DHT22;34527;45.618;5.130;2024-02-21T07:07:05;5.20;99.90
48728;DHT22;34527;45.618;5.130;2024-02-21T07:09:30;5.10;99.90
48728;DHT22;34527;45.618;5.130;2024-02-21T07:11:58;5.10;99.90
48728;DHT22;34527;45.618;5.130;2024-02-21T07:14:23;5.10;99.90
48728;DHT22;34527;45.618;5.130;2024-02-21T07:16:49;5.20;99.90
48728;DHT22;34527;45.618;5.130;2024-02-21T07:19:15;5.20;99.90
48728;DHT22;34527;45.618;5.130;2024-02-21T07:21:40;5.30;99.90
48728;DHT22;34527;45.618;5.130;2024-02-21T07:24:07;5.40;99.90
48728;DHT22;34527;45.618;5.130;2024-02-21T07:26:33;5.40;99.90
48728;DHT22;34527;45.618;5.130;2024-02-21T07:28:59;5.50;99.90
48728;DHT22;34527;45.618;5.130;2024-02-21T07:31:25;5.50;99.90
48728;DHT22;34527;45.618;5.130;2024-02-21T07:33:50;5.50;99.90
48728;DHT22;34527;45.618;5.130;2024-02-21T07:36:28;5.60;99.90
48728;DHT22;34527;45.618;5.130;2024-02-21T07:38:53;5.60;99.90
48728;DHT22;34527;45.618;5.130;2024-02-21T07:41:19;5.60;99.90
48728;DHT22;34527;45.618;5.130;2024-02-21T07:43:44;5.70;99.90
48728;DHT22;34527;45.618;5.130;2024-02-21T07:46:10;5.80;99.90
48728;DHT22;34527;45.618;5.130;2024-02-21T07:48:35;5.90;99.90
48728;DHT22;34527;45.618;5.130;2024-02-21T07:51:01;5.90;99.90
48728;DHT22;34527;45.618;5.130;2024-02-21T07:53:27;6.00;99.90
48728;DHT22;34527;45.618;5.130;2024-02-21T07:55:52;6.10;99.90
48728;DHT22;34527;45.618;5.130;2024-02-21T07:58:18;6.20;99.90
48728;DHT22;34527;45.618;5.130;2024-02-21T08:00:44;6.20;99.90
48728;DHT22;34527;45.618;5.130;2024-02-21T08:03:09;6.20;99.90
48728;DHT22;34527;45.618;5.130;2024-02-21T08:05:35;6.30;99.90
48728;DHT22;34527;45.618;5.130;2024-02-21T08:08:01;6.30;99.90
48728;DHT22;34527;45.618;5.130;2024-02-21T08:10:26;6.40;99.90
48728;DHT22;34527;45.618;5.130;2024-02-21T08:12:52;6.40;99.90
48728;DHT22;34527;45.618;5.130;2024-02-21T08:15:17;6.50;99.90
48728;DHT22;34527;45.618;5.130;2024-02-21T08:17:43;6.50;99.90
48728;DHT22;34527;45.618;5.130;2024-02-21T08:20:09;6.60;99.90
48728;DHT22;34527;45.618;5.130;2024-02-21T08:22:37;6.70;99.90
48728;DHT22;34527;45.618;5.130;2024-02-21T08:25:03;6.80;99.90
48728;DHT22;34527;45.618;5.130;2024-02-21T08:27:31;6.80;99.90
48728;DHT22;34527;45.618;5.130;2024-02-21T08:29:56;6.90;99.90
48728;DHT22;34527;45.618;5.130;2024-02-21T08:32:22;6.90;99.90
48728;DHT22;34527;45.618;5.130;2024-02-21T08:34:47;6.90;99.90
48728;DHT22;34527;45.618;5.130;2024-02-21T08:37:13;7.10;99.90
48728;DHT22;34527;45.618;5.130;2024-02-21T08:39:38;7.10;99.90
48728;DHT22;34527;45.618;5.130;2024-02-21T08:42:04;7.20;99.90
48728;DHT22;34527;45.618;5.130;2024-02-21T08:44:30;7.40;99.90
48728;DHT22;34527;45.618;5.130;2024-02-21T08:46:56;7.40;99.90
48728;DHT22;34527;45.618;5.130;2024-02-21T08:49:21;7.60;99.90
48728;DHT22;34527;45.618;5.130;2024-02-21T08:51:47;7.70;99.90
48728;DHT22;34527;45.618;5.130;2024-02-21T08:54:13;7.80;99.90
48728;DHT22;34527;45.618;5.130;2024-02-21T08:56:38;7.80;99.90
48728;DHT22;34527;45.618;5.130;2024-02-21T08:59:04;7.80;99.90
48728;DHT22;34527;45.618;5.130;2024-02-21T09:01:29;7.90;99.90
48728;DHT22;34527;45.618;5.130;2024-02-21T09:03:55;8.00;99.90
48728;DHT22;34527;45.618;5.130;2024-02-21T09:06:22;8.20;99.90
48728;DHT22;34527;45.618;5.130;2024-02-21T09:08:48;8.20;99.90
48728;DHT22;34527;45.618;5.130;2024-02-21T09:11:13;8.30;99.90
48728;DHT22;34527;45.618;5.130;2024-02-21T09:13:39;8.40;99.90
48728;DHT22;34527;45.618;5.130;2024-02-21T09:16:05;8.50;99.90
48728;DHT22;34527;45.618;5.130;2024-02-21T09:18:31;8.50;99.90
48728;DHT22;34527;45.618;5.130;2024-02-21T09:20:57;8.70;99.90
48728;DHT22;34527;45.618;5.130;2024-02-21T09:23:25;8.70;99.90
48728;DHT22;34527;45.618;5.130;2024-02-21T09:25:51;8.90;99.90
48728;DHT22;34527;45.618;5.130;2024-02-21T09:28:17;9.10;99.90
48728;DHT22;34527;45.618;5.130;2024-02-21T09:30:42;9.20;99.90
48728;DHT22;34527;45.618;5.130;2024-02-21T09:33:08;9.40;99.90
48728;DHT22;34527;45.618;5.130;2024-02-21T09:35:34;9.40;99.90
48728;DHT22;34527;45.618;5.130;2024-02-21T09:37:59;9.50;99.90
48728;DHT22;34527;45.618;5.130;2024-02-21T09:40:25;9.60;99.90
48728;DHT22;34527;45.618;5.130;2024-02-21T09:43:06;9.60;99.90
48728;DHT22;34527;45.618;5.130;2024-02-21T09:45:33;9.80;99.90
48728;DHT22;34527;45.618;5.130;2024-02-21T09:50:55;10.00;99.90
48728;DHT22;34527;45.618;5.130;2024-02-21T09:53:22;10.10;99.90
48728;DHT22;34527;45.618;5.130;2024-02-21T09:55:49;10.30;99.90
48728;DHT22;34527;45.618;5.130;2024-02-21T09:58:15;10.50;99.90
48728;DHT22;34527;45.618;5.130;2024-02-21T10:00:41;10.70;99.90
48728;DHT22;34527;45.618;5.130;2024-02-21T10:03:07;10.80;99.90
48728;DHT22;34527;45.618;5.130;2024-02-21T10:05:34;10.90;99.90
48728;DHT22;34527;45.618;5.130;2024-02-21T10:08:01;11.10;99.90
48728;DHT22;34527;45.618;5.130;2024-02-21T10:10:28;11.20;99.90
48728;DHT22;34527;45.618;5.130;2024-02-21T10:12:55;11.30;99.90
48728;DHT22;34527;45.618;5.130;2024-02-21T10:15:22;11.30;99.90
48728;DHT22;34527;45.618;5.130;2024-02-21T10:17:49;11.30;99.90
48728;DHT22;34527;45.618;5.130;2024-02-21T10:20:15;11.30;99.90
48728;DHT22;34527;45.618;5.130;2024-02-21T10:22:41;11.20;99.90
48728;DHT22;34527;45.618;5.130;2024-02-21T10:25:11;11.30;99.90
48728;DHT22;34527;45.618;5.130;2024-02-21T10:27:38;11.30;99.90
48728;DHT22;34527;45.618;5.130;2024-02-21T10:30:06;11.30;99.90
48728;DHT22;34527;45.618;5.130;2024-02-21T10:32:32;11.30;99.90
48728;DHT22;34527;45.618;5.130;2024-02-21T10:35:04;11.30;99.90
48728;DHT22;34527;45.618;5.130;2024-02-21T10:37:30;11.10;99.90
48728;DHT22;34527;45.618;5.130;2024-02-21T10:39:57;11.20;99.90
48728;DHT22;34527;45.618;5.130;2024-02-21T10:42:22;11.20;99.90
48728;DHT22;34527;45.618;5.130;2024-02-21T10:44:51;11.20;99.90
48728;DHT22;34527;45.618;5.130;2024-02-21T10:47:17;11.30;99.90
48728;DHT22;34527;45.618;5.130;2024-02-21T10:49:50;11.50;99.90
48728;DHT22;34527;45.618;5.130;2024-02-21T10:52:38;11.60;99.90
48728;DHT22;34527;45.618;5.130;2024-02-21T10:55:10;11.70;99.90
48728;DHT22;34527;45.618;5.130;2024-02-21T10:57:41;11.90;99.90
48728;DHT22;34527;45.618;5.130;2024-02-21T11:00:09;12.10;99.90
48728;DHT22;34527;45.618;5.130;2024-02-21T11:02:38;12.30;99.90
48728;DHT22;34527;45.618;5.130;2024-02-21T11:05:05;12.50;99.90
48728;DHT22;34527;45.618;5.130;2024-02-21T11:07:32;12.60;99.90
48728;DHT22;34527;45.618;5.130;2024-02-21T11:10:00;12.80;99.90
48728;DHT22;34527;45.618;5.130;2024-02-21T11:12:26;12.90;99.90
48728;DHT22;34527;45.618;5.130;2024-02-21T11:15:03;13.00;99.90
48728;DHT22;34527;45.618;5.130;2024-02-21T11:17:29;13.00;99.90
48728;DHT22;34527;45.618;5.130;2024-02-21T11:19:55;13.10;99.90
48728;DHT22;34527;45.618;5.130;2024-02-21T11:22:21;13.20;99.90
48728;DHT22;34527;45.618;5.130;2024-02-21T11:24:50;13.20;99.90
48728;DHT22;34527;45.618;5.130;2024-02-21T11:27:19;13.30;99.90
48728;DHT22;34527;45.618;5.130;2024-02-21T11:29:55;13.40;99.90
48728;DHT22;34527;45.618;5.130;2024-02-21T11:32:21;13.40;99.90
48728;DHT22;34527;45.618;5.130;2024-02-21T11:37:19;13.50;99.90
48728;DHT22;34527;45.618;5.130;2024-02-21T11:39:44;13.50;99.90
48728;DHT22;34527;45.618;5.130;2024-02-21T11:42:10;13.60;99.90
48728;DHT22;34527;45.618;5.130;2024-02-21T11:44:38;13.60;99.90
48728;DHT22;34527;45.618;5.130;2024-02-21T11:47:05;13.60;99.90
48728;DHT22;34527;45.618;5.130;2024-02-21T11:49:35;13.70;99.90
48728;DHT22;34527;45.618;5.130;2024-02-21T11:52:02;13.70;99.90
48728;DHT22;34527;45.618;5.130;2024-02-21T11:54:30;13.80;99.90
48728;DHT22;34527;45.618;5.130;2024-02-21T11:56:55;13.70;99.90
48728;DHT22;34527;45.618;5.130;2024-02-21T11:59:21;13.70;99.90
48728;DHT22;34527;45.618;5.130;2024-02-21T12:01:50;13.70;99.90
48728;DHT22;34527;45.618;5.130;2024-02-21T12:04:18;13.80;99.90
48728;DHT22;34527;45.618;5.130;2024-02-21T12:06:45;13.90;99.90
48728;DHT22;34527;45.618;5.130;2024-02-21T12:09:14;13.90;99.90
48728;DHT22;34527;45.618;5.130;2024-02-21T12:11:41;13.80;99.90
48728;DHT22;34527;45.618;5.130;2024-02-21T12:14:06;13.80;99.90
48728;DHT22;34527;45.618;5.130;2024-02-21T12:16:33;13.90;99.90
48728;DHT22;34527;45.618;5.130;2024-02-21T12:19:00;14.00;99.90
48728;DHT22;34527;45.618;5.130;2024-02-21T12:21:35;14.00;99.90
48728;DHT22;34527;45.618;5.130;2024-02-21T12:26:39;14.10;99.90
48728;DHT22;34527;45.618;5.130;2024-02-21T12:29:05;14.10;99.90
48728;DHT22;34527;45.618;5.130;2024-02-21T12:31:31;14.10;99.90
48728;DHT22;34527;45.618;5.130;2024-02-21T12:33:56;14.10;99.90
48728;DHT22;34527;45.618;5.130;2024-02-21T12:36:22;14.10;99.90
48728;DHT22;34527;45.618;5.130;2024-02-21T12:38:48;14.20;99.90
48728;DHT22;34527;45.618;5.130;2024-02-21T12:41:14;14.20;99.90
48728;DHT22;34527;45.618;5.130;2024-02-21T12:43:40;14.30;99.90
48728;DHT22;34527;45.618;5.130;2024-02-21T12:46:05;14.30;99.90
48728;DHT22;34527;45.618;5.130;2024-02-21T12:48:33;14.20;99.90
48728;DHT22;34527;45.618;5.130;2024-02-21T12:50:59;14.20;99.90
48728;DHT22;34527;45.618;5.130;2024-02-21T12:53:25;14.40;99.90
48728;DHT22;34527;45.618;5.130;2024-02-21T12:55:51;14.40;99.90
48728;DHT22;34527;45.618;5.130;2024-02-21T12:58:17;14.40;99.90
48728;DHT22;34527;45.618;5.130;2024-02-21T13:00:43;14.40;99.90
48728;DHT22;34527;45.618;5.130;2024-02-21T13:03:09;14.50;99.90
48728;DHT22;34527;45.618;5.130;2024-02-21T13:05:37;14.50;99.90
48728;DHT22;34527;45.618;5.130;2024-02-21T13:08:05;14.40;99.90
48728;DHT22;34527;45.618;5.130;2024-02-21T13:10:30;14.50;99.90
48728;DHT22;34527;45.618;5.130;2024-02-21T13:12:56;14.50;99.90
48728;DHT22;34527;45.618;5.130;2024-02-21T13:15:22;14.50;99.90
48728;DHT22;34527;45.618;5.130;2024-02-21T13:17:47;14.50;99.90
48728;DHT22;34527;45.618;5.130;2024-02-21T13:20:13;14.50;99.90
48728;DHT22;34527;45.618;5.130;2024-02-21T13:22:39;14.70;99.90
48728;DHT22;34527;45.618;5.130;2024-02-21T13:25:05;14.70;99.90
48728;DHT22;34527;45.618;5.130;2024-02-21T13:27:33;14.90;99.90
48728;DHT22;34527;45.618;5.130;2024-02-21T13:29:59;15.00;99.90
48728;DHT22;34527;45.618;5.130;2024-02-21T13:32:26;15.00;99.90
48728;DHT22;34527;45.618;5.130;2024-02-21T13:34:51;15.10;99.90
48728;DHT22;34527;45.618;5.130;2024-02-21T13:37:19;15.10;99.90
48728;DHT22;34527;45.618;5.130;2024-02-21T13:39:44;15.10;99.90
48728;DHT22;34527;45.618;5.130;2024-02-21T13:42:12;15.10;99.90
48728;DHT22;34527;45.618;5.130;2024-02-21T13:44:38;15.10;99.90
48728;DHT22;34527;45.618;5.130;2024-02-21T13:47:04;15.10;99.90
48728;DHT22;34527;45.618;5.130;2024-02-21T13:49:30;15.00;99.90
48728;DHT22;34527;45.618;5.130;2024-02-21T13:51:56;15.00;99.90
48728;DHT22;34527;45.618;5.130;2024-02-21T13:54:21;15.00;99.90
48728;DHT22;34527;45.618;5.130;2024-02-21T13:56:47;15.00;99.90
48728;DHT22;34527;45.618;5.130;2024-02-21T13:59:13;15.00;99.90
48728;DHT22;34527;45.618;5.130;2024-02-21T14:01:42;14.90;99.90
48728;DHT22;34527;45.618;5.130;2024-02-21T14:04:08;14.90;99.90
48728;DHT22;34527;45.618;5.130;2024-02-21T14:06:34;15.00;99.90
48728;DHT22;34527;45.618;5.130;2024-02-21T14:09:00;15.00;99.90
48728;DHT22;34527;45.618;5.130;2024-02-21T14:11:26;15.00;99.90
48728;DHT22;34527;45.618;5.130;2024-02-21T14:13:52;14.90;99.90
48728;DHT22;34527;45.618;5.130;2024-02-21T14:16:18;15.00;99.90
48728;DHT22;34527;45.618;5.130;2024-02-21T14:18:44;14.90;99.90
48728;DHT22;34527;45.618;5.130;2024-02-21T14:21:10;14.90;99.90
48728;DHT22;34527;45.618;5.130;2024-02-21T14:23:37;14.90;99.90
48728;DHT22;34527;45.618;5.130;2024-02-21T14:26:03;15.00;99.90
48728;DHT22;34527;45.618;5.130;2024-02-21T14:28:29;15.00;99.90
48728;DHT22;34527;45.618;5.130;2024-02-21T14:30:55;15.00;99.90
48728;DHT22;34527;45.618;5.130;2024-02-21T14:33:23;15.00;99.90
48728;DHT22;34527;45.618;5.130;2024-02-21T14:35:49;14.90;99.90
48728;DHT22;34527;45.618;5.130;2024-02-21T14:38:16;15.00;99.90
48728;DHT22;34527;45.618;5.130;2024-02-21T14:40:42;14.90;99.90
48728;DHT22;34527;45.618;5.130;2024-02-21T14:43:08;14.90;99.90
48728;DHT22;34527;45.618;5.130;2024-02-21T14:45:34;14.90;99.90
48728;DHT22;34527;45.618;5.130;2024-02-21T14:47:59;14.90;99.90
48728;DHT22;34527;45.618;5.130;2024-02-21T14:50:25;15.00;99.90
48728;DHT22;34527;45.618;5.130;2024-02-21T14:52:51;15.00;99.90
48728;DHT22;34527;45.618;5.130;2024-02-21T14:55:17;15.00;99.90
48728;DHT22;34527;45.618;5.130;2024-02-21T14:57:43;15.00;99.90
48728;DHT22;34527;45.618;5.130;2024-02-21T15:00:10;15.00;99.90
48728;DHT22;34527;45.618;5.130;2024-02-21T15:02:37;14.90;99.90
48728;DHT22;34527;45.618;5.130;2024-02-21T15:05:02;14.90;99.90
48728;DHT22;34527;45.618;5.130;2024-02-21T15:07:31;14.90;99.90
48728;DHT22;34527;45.618;5.130;2024-02-21T15:09:57;14.90;99.90
48728;DHT22;34527;45.618;5.130;2024-02-21T15:12:23;14.90;99.90
48728;DHT22;34527;45.618;5.130;2024-02-21T15:14:49;14.90;99.90
48728;DHT22;34527;45.618;5.130;2024-02-21T15:17:15;14.90;99.90
48728;DHT22;34527;45.618;5.130;2024-02-21T15:19:41;14.90;99.90
48728;DHT22;34527;45.618;5.130;2024-02-21T15:22:12;14.90;99.90
48728;DHT22;34527;45.618;5.130;2024-02-21T15:24:39;14.90;99.90
48728;DHT22;34527;45.618;5.130;2024-02-21T15:27:05;14.80;99.90
48728;DHT22;34527;45.618;5.130;2024-02-21T15:29:31;14.80;99.90
48728;DHT22;34527;45.618;5.130;2024-02-21T15:31:56;14.80;99.90
48728;DHT22;34527;45.618;5.130;2024-02-21T15:34:22;14.80;99.90
48728;DHT22;34527;45.618;5.130;2024-02-21T15:36:48;14.80;99.90
48728;DHT22;34527;45.618;5.130;2024-02-21T15:39:13;14.70;99.90
48728;DHT22;34527;45.618;5.130;2024-02-21T15:41:39;14.70;99.90